Terminal Aerodrome Forecast
Issued by NWS Charleston, WV

Current Version | Previous Version | Graphics & Text | Print | Product List | Glossary On
Versions: 1 2 3 4 5 6 7 8 9 10 11 12 13 14 15 16 17 18 19 20 21 22 23
000
FTUS41 KRLX 260800 AAA
TAFCRW
TAF AMD
KCRW 260856Z 2609/2706 02004KT P6SM OVC150
     FM261500 00000KT 6SM -RASN BR OVC070
     FM262000 00000KT 6SM BR SCT010 OVC022
     FM270000 00000KT P6SM BKN035
     FM270400 00000KT P6SM BKN030=

USA.gov is the U.S. government's official web portal to all federal, state and local government web resources and services.